Time;durP1;ratioP1;P1;durP2;ratioP2;P2;SDS_P1;SDS_P2;PMS_P1;PMS_P2;Temp;Humidity;BMP_temperature;BMP_pressure;BME280_temperature;BME280_humidity;BME280_pressure;Samples;Min_cycle;Max_cycle;Signal;HPM_P1;HPM_P2
2021/10/18 00:01:48;;;;;;;8.63;3.97;;;;;;;15.10;81.08;100584.63;5072098;28;20037;-80
2021/10/18 00:04:15;;;;;;;7.40;3.70;;;;;;;15.07;81.10;100552.72;5071742;28;20076;-80
2021/10/18 00:06:42;;;;;;;8.07;4.00;;;;;;;15.04;80.74;100572.19;5071630;28;20452;-80
2021/10/18 00:09:08;;;;;;;9.13;3.97;;;;;;;15.04;81.17;100577.75;5071666;28;20040;-80
2021/10/18 00:11:39;;;;;;;8.15;3.90;;;;;;;15.01;81.01;100573.75;5073334;28;20044;-80
2021/10/18 00:14:06;;;;;;;6.43;3.45;;;;;;;14.99;81.19;100545.44;5092263;28;20040;-80
2021/10/18 00:16:35;;;;;;;5.82;3.30;;;;;;;14.96;81.26;100542.59;5090238;28;20036;-80
2021/10/18 00:19:03;;;;;;;6.20;3.45;;;;;;;14.95;81.37;100558.56;5091272;28;20426;-79
2021/10/18 00:21:30;;;;;;;6.43;3.80;;;;;;;14.94;81.31;100551.38;5073741;28;20048;-79
2021/10/18 00:23:57;;;;;;;7.60;3.80;;;;;;;14.93;81.28;100560.91;5091439;28;20040;-79
2021/10/18 00:26:24;;;;;;;6.57;3.72;;;;;;;14.91;81.55;100565.25;5091498;28;20078;-79
2021/10/18 00:28:50;;;;;;;5.38;3.20;;;;;;;14.90;81.49;100549.72;5070660;28;20515;-79
2021/10/18 00:31:17;;;;;;;10.07;3.35;;;;;;;14.86;81.29;100549.66;5083418;28;20394;-79
2021/10/18 00:33:44;;;;;;;7.28;3.75;;;;;;;14.84;81.36;100538.09;5090324;28;20044;-80
2021/10/18 00:36:11;;;;;;;3.28;2.70;;;;;;;14.84;81.06;100552.03;5091428;28;20040;-79
2021/10/18 00:38:38;;;;;;;4.90;2.58;;;;;;;14.83;81.02;100542.06;5089710;28;20050;-80
2021/10/18 00:41:05;;;;;;;8.63;2.70;;;;;;;14.85;80.94;100536.91;5086656;28;20044;-79
2021/10/18 00:43:32;;;;;;;7.20;2.33;;;;;;;14.83;80.67;100530.09;5082537;28;20044;-79
2021/10/18 00:45:59;;;;;;;4.20;2.95;;;;;;;14.79;80.95;100534.84;5070213;28;20058;-79
2021/10/18 00:48:26;;;;;;;5.00;2.65;;;;;;;14.73;81.15;100533.56;5087483;28;20032;-79
2021/10/18 00:50:56;;;;;;;5.93;3.20;;;;;;;14.73;80.93;100544.72;5089729;28;20048;-79
2021/10/18 00:53:25;;;;;;;7.20;2.17;;;;;;;14.71;81.15;100542.31;5091058;28;20044;-79
2021/10/18 00:55:53;;;;;;;4.13;2.65;;;;;;;14.70;80.97;100540.69;5089816;28;20040;-79
2021/10/18 00:58:22;;;;;;;5.05;3.28;;;;;;;14.69;80.91;100514.03;5089957;28;20052;-78
2021/10/18 01:00:49;;;;;;;5.43;2.40;;;;;;;14.66;80.83;100498.06;5085356;28;20127;-79
2021/10/18 01:03:17;;;;;;;6.10;2.15;;;;;;;14.61;80.69;100501.19;5070679;28;20044;-80
2021/10/18 01:05:45;;;;;;;3.67;2.28;;;;;;;14.58;80.63;100496.38;5086406;28;20076;-79
2021/10/18 01:08:14;;;;;;;5.00;2.28;;;;;;;14.59;80.47;100501.53;5070678;28;20079;-79
2021/10/18 01:10:40;;;;;;;2.65;1.75;;;;;;;14.61;80.32;100492.81;5076891;28;20480;-79
2021/10/18 01:13:07;;;;;;;4.05;2.15;;;;;;;14.61;79.83;100513.09;5089611;28;20071;-79
2021/10/18 01:15:34;;;;;;;2.83;2.00;;;;;;;14.64;80.21;100505.97;5091554;28;20064;-79
2021/10/18 01:18:01;;;;;;;3.17;2.17;;;;;;;14.62;79.89;100520.28;5085119;28;20040;-79
2021/10/18 01:20:29;;;;;;;4.97;2.58;;;;;;;14.62;79.90;100555.72;5069228;28;20056;-79
2021/10/18 01:22:56;;;;;;;5.47;2.67;;;;;;;14.61;80.25;100531.81;5069280;28;20040;-79
2021/10/18 01:25:23;;;;;;;6.97;3.05;;;;;;;14.62;79.99;100499.97;5070883;28;20044;-79
2021/10/18 01:27:51;;;;;;;4.43;2.72;;;;;;;14.62;80.00;100488.84;5070653;28;20068;-79
2021/10/18 01:30:18;;;;;;;6.70;2.55;;;;;;;14.60;80.26;100507.91;5052849;28;20481;-79
2021/10/18 01:32:45;;;;;;;4.78;2.95;;;;;;;14.60;80.22;100510.72;5070708;28;20598;-79
2021/10/18 01:35:12;;;;;;;8.43;2.65;;;;;;;14.58;80.29;100516.69;5069911;28;20070;-79
2021/10/18 01:37:39;;;;;;;7.57;3.00;;;;;;;14.60;80.35;100510.72;5085724;28;20484;-79
2021/10/18 01:40:11;;;;;;;4.35;2.50;;;;;;;14.59;80.75;100506.31;5092060;28;20046;-79
2021/10/18 01:42:38;;;;;;;;;;;;;;;14.57;80.94;100515.06;5095577;28;20044;-79
2021/10/18 01:45:07;;;;;;;8.40;2.47;;;;;;;14.60;80.51;100507.91;5094916;28;20294;-80
2021/10/18 01:47:34;;;;;;;5.93;2.67;;;;;;;14.60;80.54;100496.78;5094526;28;20032;-79
2021/10/18 01:50:05;;;;;;;8.68;2.65;;;;;;;14.60;80.96;100503.16;5094844;28;20127;-80
2021/10/18 01:52:32;;;;;;;6.65;2.53;;;;;;;14.59;80.96;100495.97;5085572;28;20055;-79
2021/10/18 01:54:59;;;;;;;7.32;3.00;;;;;;;14.57;81.55;100472.47;5074415;28;20135;-79
2021/10/18 01:57:25;;;;;;;11.13;3.00;;;;;;;14.56;81.35;100473.66;5074511;28;20045;-80
2021/10/18 01:59:52;;;;;;;5.68;3.20;;;;;;;14.55;81.47;100466.47;5081032;28;20058;-80
2021/10/18 02:02:19;;;;;;;6.07;3.17;;;;;;;14.54;81.73;100482.38;5089768;28;20780;-79
2021/10/18 02:04:54;;;;;;;3.28;2.40;;;;;;;14.56;81.91;100476.44;5090541;28;20109;-79
2021/10/18 02:07:21;;;;;;;4.20;2.45;;;;;;;14.58;81.92;100499.97;5071721;28;20470;-79
2021/10/18 02:09:48;;;;;;;5.20;2.80;;;;;;;14.61;81.92;100476.09;5088557;28;20589;-79
2021/10/18 02:12:15;;;;;;;8.77;2.38;;;;;;;14.59;81.98;100495.97;5090822;28;20122;-79
2021/10/18 02:14:42;;;;;;;6.32;3.70;;;;;;;14.63;81.92;100479.31;5087887;28;20122;-79
2021/10/18 02:17:08;;;;;;;12.40;3.25;;;;;;;14.61;82.02;100464.97;5089454;28;20047;-80
2021/10/18 02:19:35;;;;;;;3.55;2.60;;;;;;;14.60;81.98;100469.72;5092790;28;20130;-80
2021/10/18 02:22:02;;;;;;;5.28;2.97;;;;;;;14.60;82.12;100483.66;5093848;28;20072;-79
2021/10/18 02:24:29;;;;;;;5.82;3.50;;;;;;;14.58;82.25;100460.16;5092985;28;20090;-79
2021/10/18 02:26:55;;;;;;;7.85;3.03;;;;;;;14.60;82.18;100458.59;5084932;28;20511;-80
2021/10/18 02:29:22;;;;;;;7.38;3.50;;;;;;;14.61;82.41;100431.53;5092748;28;20051;-79
2021/10/18 02:31:49;;;;;;;6.65;2.88;;;;;;;14.66;82.26;100422.03;5094029;28;20403;-80
2021/10/18 02:34:16;;;;;;;7.72;3.33;;;;;;;14.66;82.35;100456.25;5094161;28;20055;-80
2021/10/18 02:36:42;;;;;;;7.95;4.65;;;;;;;14.67;82.38;100463.41;5094072;28;20045;-79
2021/10/18 02:39:09;;;;;;;8.38;3.53;;;;;;;14.69;82.69;100460.28;5093732;28;20044;-80
2021/10/18 02:41:36;;;;;;;11.35;3.58;;;;;;;14.70;82.66;100479.38;5094189;28;20082;-80
2021/10/18 02:44:03;;;;;;;11.10;4.10;;;;;;;14.70;82.62;100454.31;5091356;28;20119;-79
2021/10/18 02:46:30;;;;;;;9.52;4.47;;;;;;;14.72;82.68;100442.81;5093525;28;20047;-79
2021/10/18 02:48:56;;;;;;;6.35;3.97;;;;;;;14.72;82.82;100449.16;5093937;28;20060;-79
2021/10/18 02:51:23;;;;;;;9.15;3.63;;;;;;;14.72;82.96;100451.94;5093532;28;20129;-79
2021/10/18 02:53:50;;;;;;;7.28;4.40;;;;;;;14.71;82.91;100442.00;5092290;28;20051;-79
2021/10/18 02:56:17;;;;;;;12.65;5.18;;;;;;;14.70;83.16;100406.13;5092204;28;20393;-80
2021/10/18 02:58:43;;;;;;;7.18;3.75;;;;;;;14.69;83.27;100427.66;5090329;28;20047;-80
2021/10/18 03:01:10;;;;;;;6.88;4.75;;;;;;;14.70;83.26;100420.88;5089094;28;20113;-79
2021/10/18 03:03:37;;;;;;;15.25;4.80;;;;;;;14.70;83.32;100401.38;5087826;28;20636;-79
2021/10/18 03:06:03;;;;;;;8.25;3.97;;;;;;;14.69;83.39;100401.75;5087445;28;20032;-79
2021/10/18 03:08:30;;;;;;;7.95;4.72;;;;;;;14.70;83.17;100397.78;5088287;28;20476;-80
2021/10/18 03:10:57;;;;;;;11.77;5.05;;;;;;;14.67;83.26;100402.13;5088961;28;20040;-80
2021/10/18 03:13:24;;;;;;;17.17;6.63;;;;;;;14.67;83.31;100385.41;5088099;28;21183;-80
2021/10/18 03:15:51;;;;;;;5.78;3.85;;;;;;;14.66;83.03;100381.03;5087499;28;20039;-79
2021/10/18 03:18:18;;;;;;;12.85;5.22;;;;;;;14.64;83.29;100369.44;5086308;28;20055;-79
2021/10/18 03:20:45;;;;;;;10.75;4.25;;;;;;;14.61;83.36;100359.88;5087166;28;20043;-79
2021/10/18 03:23:11;;;;;;;6.75;4.28;;;;;;;14.59;83.37;100351.09;5087539;28;20136;-79
2021/10/18 03:25:38;;;;;;;9.60;5.15;;;;;;;14.58;83.06;100341.16;5087918;28;20547;-79
2021/10/18 03:28:05;;;;;;;8.40;3.95;;;;;;;14.56;82.68;100346.28;5089073;28;20047;-79
2021/10/18 03:30:32;;;;;;;8.63;4.55;;;;;;;14.54;82.70;100353.41;5087473;28;20051;-78
2021/10/18 03:32:59;;;;;;;6.07;3.70;;;;;;;14.51;82.57;100331.91;5086836;28;20039;-79
2021/10/18 03:35:25;;;;;;;7.38;3.92;;;;;;;14.51;82.36;100312.41;5085565;28;20054;-79
2021/10/18 03:37:52;;;;;;;5.32;3.88;;;;;;;14.49;82.35;100323.94;5069892;28;20044;-78
2021/10/18 03:40:19;;;;;;;7.45;3.90;;;;;;;14.48;82.20;100315.97;5088396;28;20054;-79
2021/10/18 03:42:46;;;;;;;10.40;4.20;;;;;;;14.48;82.17;100310.41;5103276;28;20399;-79
2021/10/18 03:45:12;;;;;;;7.00;4.38;;;;;;;14.46;82.13;100301.59;5088016;28;20054;-80
2021/10/18 03:47:40;;;;;;;8.77;3.90;;;;;;;14.47;82.12;100303.22;5086438;28;20491;-79
2021/10/18 03:50:08;;;;;;;7.53;4.55;;;;;;;14.44;82.21;100299.22;5089658;28;20040;-79
2021/10/18 03:52:35;;;;;;;6.10;3.80;;;;;;;14.43;82.09;100286.44;5085409;28;20044;-79
2021/10/18 03:55:02;;;;;;;6.35;4.03;;;;;;;14.42;82.23;100284.06;5087736;28;20040;-79
2021/10/18 03:57:29;;;;;;;6.05;3.88;;;;;;;14.43;82.09;100291.22;5087742;28;20044;-79
2021/10/18 03:59:55;;;;;;;6.47;4.35;;;;;;;14.45;81.83;100272.16;5086108;28;20040;-79
2021/10/18 04:02:22;;;;;;;8.48;4.00;;;;;;;14.47;81.91;100261.44;5084849;28;20040;-79
2021/10/18 04:04:49;;;;;;;8.25;3.78;;;;;;;14.47;81.61;100264.22;5086992;28;20044;-79
2021/10/18 04:07:15;;;;;;;6.20;3.53;;;;;;;14.45;81.53;100261.03;5087946;28;20040;-80
2021/10/18 04:09:45;;;;;;;8.68;3.67;;;;;;;14.47;81.52;100253.06;5069234;28;20052;-79
2021/10/18 04:12:12;;;;;;;5.20;3.50;;;;;;;14.49;81.58;100247.91;5087836;28;20124;-79
2021/10/18 04:14:40;;;;;;;5.97;3.30;;;;;;;14.50;81.57;100241.97;5087330;28;20040;-79
2021/10/18 04:17:06;;;;;;;6.57;2.90;;;;;;;14.50;81.56;100241.19;5086198;28;20043;-80
2021/10/18 04:19:33;;;;;;;9.20;3.22;;;;;;;14.52;81.89;100239.59;5088268;28;20046;-79
2021/10/18 04:22:00;;;;;;;6.95;2.70;;;;;;;14.53;82.13;100232.06;5086478;28;20040;-78
2021/10/18 04:24:27;;;;;;;4.43;3.13;;;;;;;14.54;82.09;100236.41;5088399;28;20050;-79
2021/10/18 04:26:53;;;;;;;9.70;3.50;;;;;;;14.54;82.41;100222.50;5086530;28;20074;-79
2021/10/18 04:29:20;;;;;;;16.02;4.55;;;;;;;14.56;82.55;100225.72;5086257;28;20040;-79
2021/10/18 04:31:47;;;;;;;10.60;4.78;;;;;;;14.55;82.56;100212.97;5085124;28;20105;-79
2021/10/18 04:34:14;;;;;;;13.15;4.88;;;;;;;14.53;82.92;100218.13;5086438;28;20032;-79
2021/10/18 04:36:40;;;;;;;16.25;5.05;;;;;;;14.50;83.25;100216.91;5087118;28;20134;-79
2021/10/18 04:39:07;;;;;;;11.30;5.25;;;;;;;14.48;83.60;100212.91;5086284;28;20542;-80
2021/10/18 04:41:34;;;;;;;12.88;6.50;;;;;;;14.44;84.23;100198.94;5086392;28;20070;-80
2021/10/18 04:44:01;;;;;;;13.65;5.28;;;;;;;14.42;84.73;100194.94;5085848;28;20605;-79
2021/10/18 04:46:27;;;;;;;8.07;4.22;;;;;;;14.42;85.02;100200.50;5086651;28;20521;-79
2021/10/18 04:48:54;;;;;;;7.43;4.07;;;;;;;14.37;85.46;100198.88;5090864;28;20113;-79
2021/10/18 04:51:21;;;;;;;12.68;5.47;;;;;;;14.35;85.88;100201.22;5091622;28;20040;-80
2021/10/18 04:53:48;;;;;;;14.43;4.93;;;;;;;14.34;86.13;100194.09;5091082;28;20103;-79
2021/10/18 04:56:14;;;;;;;16.45;4.90;;;;;;;14.32;86.38;100184.50;5091000;28;20036;-79
2021/10/18 04:58:41;;;;;;;13.63;5.25;;;;;;;14.29;87.61;100168.53;5089005;28;20135;-78
2021/10/18 05:01:08;;;;;;;12.13;5.93;;;;;;;14.28;87.68;100153.00;5082722;28;20115;-79
2021/10/18 05:03:35;;;;;;;13.13;5.32;;;;;;;14.26;88.51;100156.19;5089880;28;20097;-80
2021/10/18 05:06:02;;;;;;;10.98;5.13;;;;;;;14.25;88.80;100129.50;5091260;28;20130;-80
2021/10/18 05:08:29;;;;;;;13.98;5.50;;;;;;;14.24;88.78;100113.22;5089827;28;20101;-79
2021/10/18 05:10:56;;;;;;;20.35;6.05;;;;;;;14.26;88.96;100124.75;5085174;28;20039;-79
2021/10/18 05:13:24;;;;;;;16.55;6.10;;;;;;;14.24;89.58;100133.50;5086521;28;20031;-79
2021/10/18 05:15:52;;;;;;;14.48;5.25;;;;;;;14.23;90.07;100120.75;5086005;28;20055;-80
2021/10/18 05:18:20;;;;;;;13.25;4.40;;;;;;;14.25;89.98;100123.94;5087100;28;20040;-79
2021/10/18 05:20:49;;;;;;;13.10;4.60;;;;;;;14.28;89.49;100139.88;5090863;28;20441;-79
2021/10/18 05:23:16;;;;;;;12.82;3.70;;;;;;;14.31;89.36;100135.53;5090852;28;20055;-79
2021/10/18 05:25:43;;;;;;;11.05;3.40;;;;;;;14.32;89.91;100126.81;5093257;28;20453;-80
2021/10/18 05:28:10;;;;;;;4.40;2.95;;;;;;;14.35;89.54;100122.47;5110018;28;20058;-80
2021/10/18 05:30:37;;;;;;;4.15;2.40;;;;;;;14.37;89.48;100120.91;5097100;28;20044;-80
2021/10/18 05:33:04;;;;;;;3.30;1.60;;;;;;;14.38;90.00;100132.81;5084280;28;20036;-80
2021/10/18 05:35:31;;;;;;;1.23;1.00;;;;;;;14.39;89.98;100131.66;5084374;28;20137;-79
2021/10/18 05:37:59;;;;;;;1.35;1.20;;;;;;;14.42;89.60;100130.88;5086083;28;20036;-79
2021/10/18 05:40:26;;;;;;;1.10;0.70;;;;;;;14.45;89.78;100127.34;5084676;28;20081;-79
2021/10/18 05:42:53;;;;;;;1.30;0.60;;;;;;;14.47;89.80;100124.94;5085931;28;20040;-79
2021/10/18 05:45:20;;;;;;;1.65;0.77;;;;;;;14.49;89.56;100117.00;5086316;28;20405;-79
2021/10/18 05:47:53;;;;;;;1.75;0.70;;;;;;;14.49;89.73;100117.81;5086319;28;20052;-79
2021/10/18 05:50:22;;;;;;;1.30;0.60;;;;;;;14.53;89.41;100101.13;5084715;28;20039;-79
2021/10/18 05:52:49;;;;;;;0.68;0.55;;;;;;;14.53;89.70;100101.13;5085609;28;20044;-79
2021/10/18 05:55:16;;;;;;;1.85;0.70;;;;;;;14.54;89.67;100086.00;5086832;28;20035;-80
2021/10/18 05:57:51;;;;;;;5.30;0.40;;;;;;;14.55;89.58;100076.47;5084750;28;20072;-79
2021/10/18 06:00:18;;;;;;;0.55;0.50;;;;;;;14.53;89.96;100079.63;5084314;28;20044;-79
2021/10/18 06:02:45;;;;;;;0.50;0.32;;;;;;;14.54;90.04;100078.44;5085669;28;20050;-80
2021/10/18 06:05:13;;;;;;;1.33;0.60;;;;;;;14.52;90.04;100071.66;5084930;28;20550;-79
2021/10/18 06:07:40;;;;;;;1.40;0.77;;;;;;;14.53;90.23;100062.13;5085614;28;20040;-79
2021/10/18 06:10:09;;;;;;;2.17;0.85;;;;;;;14.51;90.10;100058.91;5085025;28;20215;-80
2021/10/18 06:12:37;;;;;;;1.80;0.60;;;;;;;14.48;90.49;100060.50;5085888;28;20475;-80
2021/10/18 06:15:06;;;;;;;0.88;0.80;;;;;;;14.48;90.38;100054.91;5087137;28;20067;-80
2021/10/18 06:17:33;;;;;;;0.60;0.60;;;;;;;14.48;91.00;100059.72;5087862;28;20036;-80
2021/10/18 06:20:00;;;;;;;1.48;0.70;;;;;;;14.48;91.21;100054.16;5085858;28;20054;-80
2021/10/18 06:22:27;;;;;;;1.30;0.60;;;;;;;14.49;91.01;100044.59;5087584;28;20051;-80
2021/10/18 06:24:54;;;;;;;2.90;1.30;;;;;;;14.50;91.28;100062.91;5086250;28;20043;-80
2021/10/18 06:27:21;;;;;;;5.78;1.17;;;;;;;14.51;91.33;100061.69;5090352;28;20119;-80
2021/10/18 06:29:48;;;;;;;3.88;0.88;;;;;;;14.53;90.97;100067.72;5086561;28;20055;-79
2021/10/18 06:32:16;;;;;;;2.78;0.90;;;;;;;14.55;91.19;100060.56;5090093;28;20060;-79
2021/10/18 06:34:43;;;;;;;2.58;0.90;;;;;;;14.57;91.21;100055.38;5086392;28;20412;-80
2021/10/18 06:37:09;;;;;;;3.28;0.70;;;;;;;14.59;91.31;100057.78;5090099;28;20036;-80
2021/10/18 06:39:36;;;;;;;3.53;0.80;;;;;;;14.60;91.32;100056.59;5088197;28;20484;-80
2021/10/18 06:42:03;;;;;;;3.78;1.00;;;;;;;14.63;91.00;100045.47;5087161;28;20040;-80
2021/10/18 06:44:30;;;;;;;3.25;1.33;;;;;;;14.66;91.00;100060.63;5087480;28;20066;-80
2021/10/18 06:46:57;;;;;;;0.80;0.50;;;;;;;14.68;91.17;100047.09;5087894;28;20051;-80
2021/10/18 06:49:24;;;;;;;3.63;1.35;;;;;;;14.70;91.17;100044.72;5072890;28;20043;-80
2021/10/18 06:51:58;;;;;;;0.50;0.50;;;;;;;14.72;91.17;100033.97;5087621;28;20054;-79
2021/10/18 06:54:25;;;;;;;1.40;0.93;;;;;;;14.73;91.07;100021.63;5093159;28;20407;-80
2021/10/18 06:56:52;;;;;;;0.70;0.63;;;;;;;14.73;91.20;100018.06;5090439;28;20048;-79
2021/10/18 06:59:19;;;;;;;1.25;0.90;;;;;;;14.74;91.08;100028.81;5072673;28;20059;-79
2021/10/18 07:01:46;;;;;;;1.25;0.35;;;;;;;14.74;91.08;100022.44;5073664;28;20127;-80
2021/10/18 07:04:18;;;;;;;0.70;0.68;;;;;;;14.76;91.15;100012.50;5091999;28;20052;-80
2021/10/18 07:06:45;;;;;;;1.53;0.50;;;;;;;14.80;91.05;100026.47;5092415;28;20044;-79
2021/10/18 07:09:11;;;;;;;1.08;0.40;;;;;;;14.83;91.05;100031.22;5091762;28;20040;-80
2021/10/18 07:11:38;;;;;;;0.40;0.40;;;;;;;14.84;90.95;100028.06;5092698;28;20101;-79
2021/10/18 07:14:05;;;;;;;1.58;0.32;;;;;;;14.89;91.14;100036.06;5091249;28;20048;-80
2021/10/18 07:16:32;;;;;;;0.55;0.50;;;;;;;14.92;90.77;100031.69;5079373;28;20399;-80
2021/10/18 07:18:59;;;;;;;3.50;1.75;;;;;;;14.94;90.77;100018.16;5092246;28;20044;-80
2021/10/18 07:21:25;;;;;;;0.60;0.60;;;;;;;14.96;90.68;100016.56;5091609;28;20052;-80
2021/10/18 07:23:54;;;;;;;0.88;0.38;;;;;;;14.98;90.49;100017.00;5092646;28;20066;-80
2021/10/18 07:26:22;;;;;;;0.30;0.25;;;;;;;14.99;90.27;100029.72;5092471;28;20048;-80
2021/10/18 07:28:50;;;;;;;0.20;0.20;;;;;;;15.03;89.96;100033.34;5089740;28;20051;-79
2021/10/18 07:31:17;;;;;;;0.30;0.20;;;;;;;15.06;89.50;100024.16;5054183;28;20071;-79
2021/10/18 07:33:44;;;;;;;0.32;0.32;;;;;;;15.10;89.62;100026.97;5080327;28;20867;-79
2021/10/18 07:36:21;;;;;;;0.52;0.20;;;;;;;15.13;89.17;100035.34;5079863;28;20134;-79
2021/10/18 07:38:49;;;;;;;0.55;0.40;;;;;;;15.16;89.04;100037.38;5086225;28;20048;-80
2021/10/18 07:41:18;;;;;;;0.20;0.20;;;;;;;15.18;88.67;100015.47;5086814;28;20070;-79
2021/10/18 07:43:45;;;;;;;0.73;0.35;;;;;;;15.21;88.56;100008.28;5089152;28;20044;-79
2021/10/18 07:46:16;;;;;;;0.95;0.20;;;;;;;15.22;88.14;100005.09;5087962;28;20068;-79
2021/10/18 07:48:44;;;;;;;0.52;0.20;;;;;;;15.23;87.91;100012.28;5087732;28;20527;-79
2021/10/18 07:51:11;;;;;;;0.40;0.20;;;;;;;15.27;87.77;100017.88;5088064;28;20047;-79
2021/10/18 07:53:38;;;;;;;0.45;0.20;;;;;;;15.30;87.35;100019.09;5086231;28;20060;-80
2021/10/18 07:56:04;;;;;;;1.33;0.22;;;;;;;15.34;87.25;100019.88;5085672;28;20593;-79
2021/10/18 07:58:31;;;;;;;0.15;0.15;;;;;;;15.34;86.83;100022.66;5086888;28;20048;-79
2021/10/18 08:00:58;;;;;;;0.40;0.28;;;;;;;15.37;86.52;100033.84;5087659;28;20101;-79
2021/10/18 08:03:25;;;;;;;0.17;0.10;;;;;;;15.40;86.23;100043.41;5087995;28;20044;-80
2021/10/18 08:05:51;;;;;;;1.45;0.25;;;;;;;15.42;86.20;100043.81;5087579;28;20055;-80
2021/10/18 08:08:21;;;;;;;1.00;0.43;;;;;;;15.43;86.17;100059.34;5086292;28;20078;-83
2021/10/18 08:10:49;;;;;;;0.40;0.22;;;;;;;15.44;86.00;100058.16;5086413;28;20054;-84
2021/10/18 08:13:16;;;;;;;1.63;0.30;;;;;;;15.43;85.76;100053.78;5088004;28;20077;-84
2021/10/18 08:15:43;;;;;;;2.75;0.30;;;;;;;15.43;85.56;100064.94;5058878;28;20484;-83
2021/10/18 08:18:10;;;;;;;1.75;0.30;;;;;;;15.39;85.51;100075.28;5086357;28;20060;-85
2021/10/18 08:20:38;;;;;;;0.68;0.28;;;;;;;15.38;85.38;100065.31;5055085;28;20484;-84
2021/10/18 08:23:04;;;;;;;0.55;0.30;;;;;;;15.37;85.47;100058.13;5084141;28;20148;-84
2021/10/18 08:25:31;;;;;;;1.55;0.50;;;;;;;15.36;85.16;100057.34;5086385;28;20067;-83
2021/10/18 08:27:58;;;;;;;1.30;0.40;;;;;;;15.36;85.02;100064.91;5084891;28;20115;-81
2021/10/18 08:30:24;;;;;;;2.53;0.50;;;;;;;15.35;85.16;100066.09;5087519;28;20040;-83
2021/10/18 08:32:54;;;;;;;1.88;0.60;;;;;;;15.38;85.17;100073.69;5086724;28;20134;-84
2021/10/18 08:35:21;;;;;;;0.38;0.28;;;;;;;15.38;85.11;100057.72;5086793;28;22242;-84
2021/10/18 08:40:39;;;;;;;2.08;0.40;;;;;;;15.42;85.17;100066.91;5086734;28;20040;-83
2021/10/18 08:45:33;;;;;;;1.25;0.60;;;;;;;15.46;85.05;100055.81;5087678;28;20058;-83
2021/10/18 08:48:00;;;;;;;2.38;1.02;;;;;;;15.47;85.12;100044.25;5084712;28;20538;-83
2021/10/18 08:50:27;;;;;;;2.53;0.43;;;;;;;15.49;84.94;100039.06;5087419;28;20502;-83
2021/10/18 08:52:54;;;;;;;1.92;0.30;;;;;;;15.51;84.97;100047.88;5084969;28;20042;-83
2021/10/18 08:55:21;;;;;;;2.50;0.45;;;;;;;15.54;84.81;100052.63;5085611;28;20040;-82
2021/10/18 08:57:48;;;;;;;2.55;0.30;;;;;;;15.57;84.78;100042.66;5085879;28;20480;-83
2021/10/18 09:00:35;;;;;;;0.47;0.28;;;;;;;15.62;84.64;100029.13;5083433;28;20480;-82
2021/10/18 09:03:13;;;;;;;0.57;0.35;;;;;;;15.66;84.48;100031.94;5081113;28;20067;-82
2021/10/18 09:05:40;;;;;;;1.75;0.40;;;;;;;15.72;84.59;100058.25;5084420;28;20078;-85
2021/10/18 09:08:08;;;;;;;1.77;0.35;;;;;;;15.75;84.36;100054.69;5084164;28;20479;-79
2021/10/18 09:10:35;;;;;;;0.73;0.20;;;;;;;15.79;84.57;100061.06;5083837;28;20107;-79
2021/10/18 09:13:11;;;;;;;0.77;0.22;;;;;;;15.81;84.21;100075.41;5085628;28;20689;-79
2021/10/18 09:15:38;;;;;;;2.50;0.65;;;;;;;15.83;84.05;100075.81;5084163;28;20032;-82
2021/10/18 09:18:05;;;;;;;0.22;0.15;;;;;;;15.85;84.34;100070.63;5066894;28;20109;-84
2021/10/18 09:20:36;;;;;;;0.65;0.30;;;;;;;15.84;84.20;100074.63;5083251;28;20044;-79
2021/10/18 09:23:29;;;;;;;0.40;0.20;;;;;;;15.86;84.25;100049.88;5084770;28;20062;-80
2021/10/18 09:26:06;;;;;;;1.10;0.22;;;;;;;15.89;84.46;100060.25;5085908;28;20090;-82
2021/10/18 09:28:34;;;;;;;0.77;0.25;;;;;;;15.93;84.45;100061.06;5084801;28;20085;-80
2021/10/18 09:31:01;;;;;;;1.67;0.20;;;;;;;15.97;84.25;100050.69;5059383;28;20101;-80
2021/10/18 09:33:36;;;;;;;1.10;0.40;;;;;;;16.02;84.01;100039.13;5083753;28;20989;-85
2021/10/18 09:36:06;;;;;;;0.75;0.32;;;;;;;16.05;84.13;100029.94;5080745;28;20052;-83
2021/10/18 09:38:33;;;;;;;3.63;0.30;;;;;;;16.06;83.90;100044.72;5066693;28;20048;-84
2021/10/18 09:41:01;;;;;;;0.75;0.20;;;;;;;16.10;83.82;100051.88;5084242;28;20044;-84
2021/10/18 09:43:48;;;;;;;0.38;0.30;;;;;;;16.13;83.77;100036.31;5068421;28;20139;-85
2021/10/18 09:46:22;;;;;;;2.80;1.05;;;;;;;16.16;84.15;100032.75;5082393;28;20045;-82
2021/10/18 10:54:11;;;;;;;3.03;0.57;;;;;;;16.87;82.94;100041.81;5089529;28;20036;-80
2021/10/18 10:56:45;;;;;;;4.85;1.85;;;;;;;16.96;82.91;100028.22;5086301;28;20051;-80
2021/10/18 10:59:25;;;;;;;2.20;0.50;;;;;;;17.08;82.68;100019.34;5086564;28;20486;-81
2021/10/18 11:02:05;;;;;;;2.20;0.40;;;;;;;17.14;82.48;100017.72;5088822;28;20127;-81
2021/10/18 11:04:32;;;;;;;2.42;0.70;;;;;;;17.18;82.36;100018.53;5089401;28;20044;-80
2021/10/18 11:07:11;;;;;;;0.85;0.45;;;;;;;17.21;82.07;100019.72;5081362;28;20116;-80
2021/10/18 11:09:44;;;;;;;1.85;0.52;;;;;;;17.22;81.97;100024.88;5087510;28;20044;-81
2021/10/18 11:12:16;;;;;;;0.63;0.20;;;;;;;17.29;81.88;100041.63;5086831;28;20135;-80
2021/10/18 11:15:05;;;;;;;4.38;1.60;;;;;;;17.38;81.67;100039.19;5086482;28;20605;-79
2021/10/18 11:17:38;;;;;;;1.35;0.30;;;;;;;17.48;81.51;100031.94;5083869;28;20047;-80
2021/10/18 11:20:16;;;;;;;3.03;0.30;;;;;;;17.56;81.40;100025.91;5088850;28;20132;-81
2021/10/18 11:22:52;;;;;;;0.50;0.20;;;;;;;17.62;80.69;100029.88;5085677;28;20097;-80
2021/10/18 11:25:20;;;;;;;1.25;0.45;;;;;;;17.68;80.83;100024.66;5087990;28;20051;-80
2021/10/18 11:27:55;;;;;;;5.15;1.05;;;;;;;17.75;80.50;100027.38;5087435;28;20055;-81
2021/10/18 11:30:26;;;;;;;2.40;0.40;;;;;;;17.82;80.22;100038.53;5087059;28;20062;-81
2021/10/18 11:32:59;;;;;;;2.35;0.40;;;;;;;17.89;79.93;100043.28;5085327;28;20119;-81
2021/10/18 11:35:27;;;;;;;3.35;0.40;;;;;;;17.98;80.13;100036.00;5087330;28;20136;-81
2021/10/18 11:38:05;;;;;;;0.82;0.30;;;;;;;18.07;80.17;100043.94;5088013;28;20115;-81
2021/10/18 11:40:34;;;;;;;5.93;0.50;;;;;;;18.11;80.05;100044.69;5088766;28;20051;-81
2021/10/18 11:43:07;;;;;;;2.00;0.85;;;;;;;18.18;79.61;100048.25;5086565;28;20414;-81
2021/10/18 11:45:43;;;;;;;4.53;0.90;;;;;;;18.23;79.67;100033.00;5100691;27;20135;-81
2021/10/18 11:48:13;;;;;;;2.92;0.50;;;;;;;18.27;79.75;100033.75;5087351;28;20036;-81
2021/10/18 11:50:42;;;;;;;3.60;0.60;;;;;;;18.27;79.60;100028.16;5089820;28;20044;-81
2021/10/18 11:53:16;;;;;;;4.00;0.60;;;;;;;18.23;79.20;100033.81;5088673;28;20074;-80
2021/10/18 11:55:46;;;;;;;2.35;0.30;;;;;;;18.20;78.89;100028.22;5083578;28;20054;-80
2021/10/18 11:58:26;;;;;;;4.15;0.30;;;;;;;18.18;78.62;100033.44;5088558;28;20036;-80
2021/10/18 12:01:08;;;;;;;2.70;0.63;;;;;;;18.12;78.72;100030.31;5083774;28;20048;-80
2021/10/18 12:03:37;;;;;;;3.25;0.45;;;;;;;18.08;78.75;100037.16;5085431;28;20049;-80
2021/10/18 12:06:05;;;;;;;5.85;0.68;;;;;;;18.02;78.87;100033.19;5086368;28;20043;-81
2021/10/18 12:08:35;;;;;;;2.17;0.50;;;;;;;18.01;78.94;100042.78;5087689;28;20040;-80
2021/10/18 12:11:08;;;;;;;4.20;0.70;;;;;;;17.95;78.92;100044.47;5087334;28;20051;-80
2021/10/18 12:13:40;;;;;;;0.90;0.22;;;;;;;17.89;78.89;100034.91;5087461;28;20055;-80
2021/10/18 12:16:14;;;;;;;;;;;;;;;17.83;79.04;100039.34;5086421;28;20048;-80
2021/10/18 12:18:55;;;;;;;1.48;0.47;;;;;;;17.85;79.09;100039.72;5085083;28;19924;-80
2021/10/18 12:21:26;;;;;;;2.88;0.40;;;;;;;17.89;79.27;100035.69;5085472;28;20051;-80
2021/10/18 12:23:59;;;;;;;0.40;0.10;;;;;;;18.01;79.02;100048.38;5085508;28;20043;-80
2021/10/18 12:26:29;;;;;;;1.80;0.10;;;;;;;18.14;79.09;100050.28;5084498;28;20052;-80
2021/10/18 12:28:59;;;;;;;0.05;0.00;;;;;;;18.24;78.67;100051.41;5080678;28;20519;-81
2021/10/18 12:31:27;;;;;;;2.08;0.10;;;;;;;18.34;78.19;100044.91;5086081;28;20047;-80
2021/10/18 12:34:04;;;;;;;4.95;0.10;;;;;;;18.51;78.03;100048.78;5087145;28;20059;-80
2021/10/18 12:36:44;;;;;;;0.38;0.10;;;;;;;18.71;77.79;100047.78;5084618;28;20086;-80
2021/10/18 12:39:48;;;;;;;0.00;0.00;;;;;;;18.81;76.21;100035.63;5083702;28;20401;-80
2021/10/18 12:42:27;;;;;;;0.65;0.05;;;;;;;18.94;76.81;100030.28;5087722;28;20044;-80